createdAt,value
2022-12-01T00:01:42.639Z,215.55
2022-12-01T00:04:31.538Z,251.25
2022-12-01T00:07:20.498Z,229.50
2022-12-01T00:10:33.478Z,233.68
2022-12-01T00:13:22.485Z,232.52
2022-12-01T00:16:11.479Z,244.88
2022-12-01T00:19:01.538Z,228.05
2022-12-01T00:21:43.912Z,243.63
2022-12-01T00:24:33.493Z,248.63
2022-12-01T00:27:15.872Z,246.32
2022-12-01T00:30:04.580Z,246.35
2022-12-01T00:32:53.591Z,248.05
2022-12-01T00:35:35.753Z,242.85
2022-12-01T00:38:24.474Z,244.23
2022-12-01T00:41:13.861Z,237.23
2022-12-01T00:43:55.608Z,242.40
2022-12-01T00:46:37.824Z,252.68
2022-12-01T00:49:28.584Z,245.07
2022-12-01T00:52:16.818Z,248.07
2022-12-01T00:54:59.637Z,239.60
2022-12-01T00:57:47.880Z,244.45
2022-12-01T01:00:30.555Z,235.73
2022-12-01T01:03:19.854Z,242.73
2022-12-01T01:06:02.524Z,241.95
2022-12-01T01:08:51.826Z,240.20
2022-12-01T01:11:40.576Z,237.57
2022-12-01T01:14:30.537Z,248.35
2022-12-01T01:17:12.689Z,235.70
2022-12-01T01:20:01.457Z,249.05
2022-12-01T01:22:43.690Z,242.77
2022-12-01T01:25:32.516Z,238.15
2022-12-01T01:28:14.773Z,235.95
2022-12-01T01:31:04.612Z,235.67
2022-12-01T01:33:53.576Z,239.48
2022-12-01T01:36:36.067Z,247.10
2022-12-01T01:39:24.570Z,238.82
2022-12-01T01:42:13.546Z,245.57
2022-12-01T01:45:06.475Z,244.98
2022-12-01T01:47:49.860Z,265.00
2022-12-01T01:50:38.555Z,255.13
2022-12-01T01:53:29.546Z,245.60
2022-12-01T01:56:18.566Z,253.30
2022-12-01T01:59:00.926Z,244.90
2022-12-01T02:01:49.663Z,246.40
2022-12-01T02:04:32.849Z,253.30
2022-12-01T02:07:24.574Z,240.88
2022-12-01T02:10:22.509Z,247.93
2022-12-01T02:13:14.573Z,234.13
2022-12-01T02:16:16.493Z,252.77
2022-12-01T02:19:37.571Z,246.85
2022-12-01T02:22:53.900Z,256.02
2022-12-01T02:25:58.539Z,245.40
2022-12-01T02:32:25.820Z,242.82
2022-12-01T02:35:25.557Z,271.90
2022-12-01T02:38:38.842Z,269.92
2022-12-01T02:41:27.514Z,248.52
2022-12-01T02:44:31.833Z,269.55
2022-12-01T02:50:29.836Z,245.20
2022-12-01T02:53:14.461Z,243.43
2022-12-01T02:56:00.078Z,253.90
2022-12-01T02:58:48.432Z,255.02
2022-12-01T03:01:53.546Z,254.63
2022-12-01T03:05:18.436Z,260.02
2022-12-01T03:08:14.396Z,275.10
2022-12-01T03:11:14.609Z,273.92
2022-12-01T03:14:25.764Z,272.17
2022-12-01T03:17:16.479Z,259.33
2022-12-01T03:20:16.556Z,258.90
2022-12-01T03:23:04.963Z,259.92
2022-12-01T03:25:57.624Z,259.58
2022-12-01T03:28:49.769Z,276.60
2022-12-01T03:31:43.584Z,240.65
2022-12-01T03:34:53.879Z,308.98
2022-12-01T03:37:55.485Z,276.17
2022-12-01T03:40:41.810Z,247.48
2022-12-01T03:43:36.519Z,256.10
2022-12-01T03:46:52.922Z,240.60
2022-12-01T03:49:42.545Z,222.15
2022-12-01T03:52:45.849Z,226.00
2022-12-01T03:55:39.035Z,206.88
2022-12-01T03:58:36.495Z,218.02
2022-12-01T04:01:18.949Z,208.15
2022-12-01T04:04:07.551Z,207.90
2022-12-01T04:07:04.485Z,210.30
2022-12-01T04:09:46.962Z,213.73
2022-12-01T04:12:40.470Z,228.88
2022-12-01T04:15:29.843Z,235.30
2022-12-01T04:18:12.504Z,233.93
2022-12-01T04:20:54.720Z,250.55
2022-12-01T04:24:02.565Z,249.35
2022-12-01T04:26:47.047Z,236.60
2022-12-01T04:29:35.480Z,236.18
2022-12-01T04:32:24.539Z,235.38
2022-12-01T04:35:07.645Z,242.77
2022-12-01T04:37:56.551Z,228.63
2022-12-01T04:40:38.765Z,222.48
2022-12-01T04:43:27.566Z,203.30
2022-12-01T04:46:09.883Z,185.20
2022-12-01T04:48:58.514Z,197.38
2022-12-01T04:51:40.946Z,186.85
2022-12-01T04:54:30.913Z,178.20
2022-12-01T04:57:12.848Z,178.68
2022-12-01T05:00:01.495Z,180.35
2022-12-01T05:02:44.766Z,176.93
2022-12-01T05:05:33.540Z,178.52
2022-12-01T05:08:22.470Z,172.68
2022-12-01T05:11:19.401Z,164.95
2022-12-01T05:14:08.566Z,161.73
2022-12-01T05:16:50.891Z,138.70
2022-12-01T05:19:51.724Z,145.80
2022-12-01T05:23:03.688Z,127.50
2022-12-01T05:25:42.410Z,100.50
2022-12-01T05:28:27.843Z,91.65
2022-12-01T05:31:16.499Z,99.97
2022-12-01T05:34:05.431Z,87.60
2022-12-01T05:36:47.892Z,98.00
2022-12-01T05:39:36.402Z,104.45
2022-12-01T05:42:25.491Z,75.95
2022-12-01T05:45:15.440Z,71.10
2022-12-01T05:48:04.531Z,82.50
2022-12-01T05:50:54.032Z,81.43
2022-12-01T05:53:35.574Z,80.65
2022-12-01T05:56:24.501Z,79.75
2022-12-01T05:59:06.939Z,81.82
2022-12-01T06:01:56.437Z,95.40
2022-12-01T06:04:45.530Z,76.88
2022-12-01T06:07:27.688Z,90.80
2022-12-01T06:10:17.561Z,102.15
2022-12-01T06:13:12.415Z,101.22
2022-12-01T06:16:08.494Z,91.57
2022-12-01T06:18:50.765Z,98.90
2022-12-01T06:21:39.410Z,109.35
2022-12-01T06:24:21.846Z,111.35
2022-12-01T06:27:10.463Z,130.43
2022-12-01T06:29:53.166Z,121.30
2022-12-01T06:32:42.570Z,123.80
2022-12-01T06:35:24.869Z,124.38
2022-12-01T06:38:13.472Z,121.95
2022-12-01T06:40:55.932Z,117.32
2022-12-01T06:43:45.495Z,114.75
2022-12-01T06:46:35.585Z,108.63
2022-12-01T06:49:17.727Z,104.30
2022-12-01T06:52:06.542Z,111.28
2022-12-01T06:54:48.682Z,105.90
2022-12-01T06:57:37.542Z,111.70
2022-12-01T07:00:26.563Z,92.88
2022-12-01T07:03:15.479Z,88.32
2022-12-01T07:06:02.426Z,87.40
2022-12-01T07:08:51.488Z,96.43
2022-12-01T07:11:46.353Z,88.95
2022-12-01T07:14:35.541Z,105.45
2022-12-01T07:17:17.800Z,106.97
2022-12-01T07:20:06.502Z,93.10
2022-12-01T07:22:48.817Z,97.97
2022-12-01T07:25:37.404Z,92.93
2022-12-01T07:28:26.430Z,88.90
2022-12-01T07:31:21.558Z,99.65
2022-12-01T07:34:03.760Z,91.68
2022-12-01T07:36:52.444Z,91.70
2022-12-01T07:39:34.798Z,94.30
2022-12-01T07:42:23.524Z,87.50
2022-12-01T07:45:12.422Z,81.88
2022-12-01T07:48:02.479Z,84.20
2022-12-01T07:50:44.843Z,81.38
2022-12-01T07:53:33.446Z,77.72
2022-12-01T07:56:15.898Z,76.13
2022-12-01T07:59:04.419Z,73.53
2022-12-01T08:01:53.434Z,83.43
2022-12-01T08:04:42.898Z,90.93
2022-12-01T08:07:29.571Z,79.03
2022-12-01T08:10:18.547Z,90.05
2022-12-01T08:13:09.855Z,75.53
2022-12-01T08:15:55.499Z,79.65
2022-12-01T08:18:46.023Z,70.18
2022-12-01T08:21:30.514Z,65.38
2022-12-01T08:24:19.795Z,61.42
2022-12-01T08:27:01.482Z,60.97
2022-12-01T08:29:43.689Z,57.33
2022-12-01T08:32:32.481Z,60.40
2022-12-01T08:35:14.806Z,63.75
2022-12-01T08:38:05.575Z,52.28
2022-12-01T08:40:53.744Z,57.40
2022-12-01T08:46:45.844Z,53.17
2022-12-01T08:49:28.426Z,46.42
2022-12-01T08:52:10.651Z,54.13
2022-12-01T08:54:59.391Z,48.42
2022-12-01T08:57:41.754Z,45.13
2022-12-01T09:00:31.481Z,41.85
2022-12-01T09:03:20.699Z,47.78
2022-12-01T09:06:02.834Z,48.83
2022-12-01T09:08:52.499Z,46.55
2022-12-01T09:11:42.533Z,50.72
2022-12-01T09:14:31.465Z,43.42
2022-12-01T09:17:22.383Z,45.05
2022-12-01T09:20:11.396Z,47.40
2022-12-01T09:22:53.847Z,43.10
2022-12-01T09:25:42.562Z,43.22
2022-12-01T09:28:25.802Z,44.92
2022-12-01T09:31:19.565Z,52.63
2022-12-01T09:34:11.908Z,47.22
2022-12-01T09:37:06.499Z,53.55
2022-12-01T09:39:49.191Z,40.47
2022-12-01T09:42:38.448Z,41.63
2022-12-01T09:45:33.875Z,37.88
2022-12-01T09:48:50.478Z,38.45
2022-12-01T09:51:44.395Z,40.97
2022-12-01T09:54:33.480Z,43.28
2022-12-01T09:57:40.646Z,49.45
2022-12-01T10:00:28.849Z,42.33
2022-12-01T10:03:40.509Z,36.88
2022-12-01T10:06:31.868Z,36.35
2022-12-01T10:09:29.454Z,45.65
2022-12-01T10:12:37.417Z,41.30
2022-12-01T10:15:36.381Z,40.88
2022-12-01T10:18:31.462Z,47.55
2022-12-01T10:21:47.427Z,47.85
2022-12-01T10:24:42.512Z,45.83
2022-12-01T10:27:30.302Z,44.05
2022-12-01T10:30:21.515Z,46.45
2022-12-01T10:33:25.935Z,49.20
2022-12-01T10:36:08.536Z,47.05
2022-12-01T10:38:57.443Z,53.10
2022-12-01T10:42:43.397Z,53.28
2022-12-01T10:45:29.910Z,55.63
2022-12-01T10:48:30.565Z,50.88
2022-12-01T10:51:18.686Z,54.70
2022-12-01T10:54:47.396Z,60.03
2022-12-01T10:57:38.873Z,49.25
2022-12-01T11:03:42.879Z,59.00
2022-12-01T11:06:30.484Z,58.92
2022-12-01T11:09:28.453Z,57.28
2022-12-01T11:12:30.493Z,56.28
2022-12-01T11:15:30.494Z,54.67
2022-12-01T11:18:34.424Z,54.65
2022-12-01T11:21:28.059Z,56.92
2022-12-01T11:24:16.392Z,59.40
2022-12-01T11:27:00.561Z,62.88
2022-12-01T11:29:54.494Z,64.28
2022-12-01T11:32:47.758Z,62.67
2022-12-01T11:35:32.423Z,55.70
2022-12-01T11:38:30.605Z,69.20
2022-12-01T11:41:12.812Z,62.47
2022-12-01T11:44:02.059Z,61.70
2022-12-01T11:46:55.860Z,65.05
2022-12-01T11:50:05.463Z,56.53
2022-12-01T11:52:56.732Z,65.20
2022-12-01T11:55:45.508Z,61.30
2022-12-01T11:58:27.826Z,68.93
2022-12-01T12:01:34.464Z,75.65
2022-12-01T12:04:33.196Z,73.28
2022-12-01T12:07:34.914Z,78.78
2022-12-01T12:10:31.193Z,67.38
2022-12-01T12:13:31.381Z,80.32
2022-12-01T12:16:48.771Z,68.18
2022-12-01T12:20:07.287Z,77.22
2022-12-01T12:23:19.876Z,74.03
2022-12-01T12:26:16.415Z,81.13
2022-12-01T12:29:23.427Z,79.13
2022-12-01T12:32:18.826Z,95.05
2022-12-01T12:35:22.411Z,81.50
2022-12-01T12:38:20.470Z,89.25
2022-12-01T12:41:55.464Z,101.25
2022-12-01T12:48:15.456Z,105.38
2022-12-01T12:51:28.394Z,102.95
2022-12-01T12:54:41.775Z,99.00
2022-12-01T12:57:44.534Z,106.82
2022-12-01T13:00:31.775Z,102.85
2022-12-01T13:03:46.484Z,105.55
2022-12-01T13:07:00.521Z,92.97
2022-12-01T13:09:49.568Z,104.13
2022-12-01T13:12:47.511Z,108.90
2022-12-01T13:15:44.537Z,120.88
2022-12-01T13:18:35.825Z,106.65
2022-12-01T13:21:31.470Z,106.03
2022-12-01T13:24:23.536Z,156.55
2022-12-01T13:27:26.415Z,173.52
2022-12-01T13:30:20.458Z,151.07
2022-12-01T13:33:16.441Z,194.43
2022-12-01T13:36:22.984Z,196.43
2022-12-01T13:39:17.502Z,191.35
2022-12-01T13:42:26.433Z,211.68
2022-12-01T13:45:15.933Z,216.38
2022-12-01T13:48:08.558Z,214.82
2022-12-01T13:50:51.259Z,197.23
2022-12-01T13:53:43.508Z,202.90
2022-12-01T13:56:36.090Z,188.07
2022-12-01T13:59:47.658Z,187.70
2022-12-01T14:02:29.878Z,167.23
2022-12-01T14:05:33.443Z,174.38
2022-12-01T14:11:29.487Z,194.63
2022-12-01T14:14:26.370Z,200.65
2022-12-01T14:17:10.426Z,183.82
2022-12-01T14:20:00.748Z,182.98
2022-12-01T14:22:47.442Z,166.50
2022-12-01T14:25:31.851Z,148.05
2022-12-01T14:28:30.505Z,146.15
2022-12-01T14:31:13.212Z,153.25
2022-12-01T14:34:28.380Z,184.90
2022-12-01T14:37:20.260Z,165.93
2022-12-01T14:40:18.488Z,175.20
2022-12-01T14:43:20.983Z,179.65
2022-12-01T14:46:19.511Z,189.48
2022-12-01T14:49:04.030Z,189.07
2022-12-01T14:51:56.478Z,189.40
2022-12-01T14:54:54.843Z,177.97
2022-12-01T14:57:45.402Z,172.98
2022-12-01T15:00:34.791Z,171.25
2022-12-01T15:03:21.408Z,180.70
2022-12-01T15:06:16.575Z,178.15
2022-12-01T15:09:35.620Z,161.57
2022-12-01T15:12:41.549Z,179.20
2022-12-01T15:15:33.792Z,153.13
2022-12-01T15:18:35.409Z,156.25
2022-12-01T15:21:32.465Z,155.45
2022-12-01T15:24:38.399Z,143.93
2022-12-01T15:27:39.748Z,147.45
2022-12-01T15:30:23.410Z,150.35
2022-12-01T15:33:13.767Z,146.75
2022-12-01T15:35:57.436Z,142.63
2022-12-01T15:38:50.444Z,137.30
2022-12-01T15:41:39.477Z,147.33
2022-12-01T15:44:30.511Z,135.35
2022-12-01T15:47:48.442Z,136.32
2022-12-01T15:50:48.397Z,135.27
2022-12-01T15:53:47.459Z,125.78
2022-12-01T15:56:39.732Z,135.98
2022-12-01T15:59:21.433Z,125.55
2022-12-01T16:02:31.408Z,135.25
2022-12-01T16:05:48.555Z,135.45
2022-12-01T16:08:30.994Z,134.30
2022-12-01T16:11:31.504Z,123.47
2022-12-01T16:14:34.385Z,126.13
2022-12-01T16:17:24.465Z,135.90
2022-12-01T16:20:32.379Z,133.93
2022-12-01T16:23:30.339Z,128.15
2022-12-01T16:26:12.863Z,133.32
2022-12-01T16:29:02.385Z,137.75
2022-12-01T16:32:19.760Z,143.38
2022-12-01T16:34:54.479Z,137.88
2022-12-01T16:37:43.438Z,146.35
2022-12-01T16:40:26.832Z,138.85
2022-12-01T16:43:24.639Z,154.65
2022-12-01T16:46:09.842Z,139.18
2022-12-01T16:48:58.445Z,130.98
2022-12-01T16:51:55.294Z,137.27
2022-12-01T16:54:45.457Z,149.05
2022-12-01T16:57:27.725Z,145.20
2022-12-01T17:00:17.530Z,146.57
2022-12-01T17:02:59.842Z,139.15
2022-12-01T17:05:48.491Z,144.02
2022-12-01T17:08:31.765Z,133.02
2022-12-01T17:11:20.367Z,127.03
2022-12-01T17:14:09.696Z,137.15
2022-12-01T17:16:52.444Z,148.73
2022-12-01T17:19:34.641Z,131.32
2022-12-01T17:22:23.460Z,152.30
2022-12-01T17:25:12.836Z,154.60
2022-12-01T17:27:55.400Z,137.63
2022-12-01T17:30:45.312Z,144.60
2022-12-01T17:33:28.463Z,142.18
2022-12-01T17:36:20.715Z,145.87
2022-12-01T17:39:03.834Z,152.02
2022-12-01T17:41:51.745Z,151.60
2022-12-01T17:44:33.428Z,139.45
2022-12-01T17:47:23.123Z,144.35
2022-12-01T17:50:05.477Z,166.25
2022-12-01T17:52:54.738Z,146.75
2022-12-01T17:55:37.447Z,161.73
2022-12-01T17:58:25.739Z,155.43
2022-12-01T18:01:07.417Z,156.40
2022-12-01T18:03:57.493Z,160.88
2022-12-01T18:06:39.720Z,163.52
2022-12-01T18:09:28.473Z,160.75
2022-12-01T18:12:17.372Z,139.50
2022-12-01T18:15:12.398Z,165.32
2022-12-01T18:18:01.327Z,153.10
2022-12-01T18:20:58.456Z,157.05
2022-12-01T18:23:47.471Z,151.80
2022-12-01T18:26:30.748Z,152.05
2022-12-01T18:29:33.378Z,164.65
2022-12-01T18:32:22.413Z,178.95
2022-12-01T18:35:11.913Z,167.35
2022-12-01T18:37:54.500Z,177.68
2022-12-01T18:40:46.902Z,171.13
2022-12-01T18:43:28.768Z,175.68
2022-12-01T18:46:11.796Z,166.63
2022-12-01T18:49:10.484Z,165.40
2022-12-01T18:52:01.381Z,168.32
2022-12-01T18:54:45.539Z,160.75
2022-12-01T18:57:27.861Z,155.40
2022-12-01T19:00:17.464Z,174.10
2022-12-01T19:02:59.928Z,159.70
2022-12-01T19:05:53.343Z,162.48
2022-12-01T19:08:42.838Z,181.45
2022-12-01T19:11:26.395Z,179.02
2022-12-01T19:14:24.463Z,171.52
2022-12-01T19:17:06.666Z,179.77
2022-12-01T19:19:55.423Z,166.15
2022-12-01T19:22:37.682Z,167.55
2022-12-01T19:25:27.380Z,160.82
2022-12-01T19:28:17.466Z,170.48
2022-12-01T19:30:59.988Z,165.55
2022-12-01T19:33:49.483Z,169.38
2022-12-01T19:36:34.743Z,177.25
2022-12-01T19:39:23.448Z,171.90
2022-12-01T19:42:06.899Z,173.02
2022-12-01T19:44:55.457Z,180.80
2022-12-01T19:47:41.768Z,186.68
2022-12-01T19:50:30.398Z,187.70
2022-12-01T19:53:12.750Z,164.27
2022-12-01T19:56:01.387Z,169.63
2022-12-01T19:58:43.755Z,176.25
2022-12-01T20:01:33.530Z,179.52
2022-12-01T20:04:16.775Z,180.05
2022-12-01T20:07:05.479Z,175.20
2022-12-01T20:09:50.057Z,168.90
2022-12-01T20:12:39.665Z,170.68
2022-12-01T20:15:22.814Z,179.55
2022-12-01T20:18:11.369Z,172.13
2022-12-01T20:20:53.673Z,174.65
2022-12-01T20:23:43.394Z,175.43
2022-12-01T20:26:34.382Z,172.88
2022-12-01T20:29:29.315Z,181.20
2022-12-01T20:32:23.300Z,173.18
2022-12-01T20:38:01.323Z,167.45
2022-12-01T20:40:50.440Z,163.50
2022-12-01T20:43:39.432Z,170.90
2022-12-01T20:46:21.629Z,163.63
2022-12-01T20:49:10.496Z,160.52
2022-12-01T20:51:58.669Z,167.73
2022-12-01T20:54:41.418Z,164.65
2022-12-01T20:57:30.721Z,176.03
2022-12-01T21:00:16.615Z,164.23
2022-12-01T21:03:05.387Z,155.20
2022-12-01T21:05:51.712Z,153.15
2022-12-01T21:08:40.380Z,164.48
2022-12-01T21:11:56.147Z,163.60
2022-12-01T21:14:47.421Z,162.15
2022-12-01T21:17:49.661Z,158.13
2022-12-01T21:20:47.446Z,177.68
2022-12-01T21:23:29.826Z,167.93
2022-12-01T21:26:26.422Z,175.50
2022-12-01T21:29:26.048Z,171.18
2022-12-01T21:32:25.400Z,168.77
2022-12-01T21:35:32.722Z,165.18
2022-12-01T21:38:22.480Z,177.32
2022-12-01T21:41:04.715Z,170.93
2022-12-01T21:43:53.383Z,175.55
2022-12-01T21:46:36.311Z,164.50
2022-12-01T21:49:29.291Z,166.32
2022-12-01T21:52:19.651Z,167.55
2022-12-01T21:55:31.417Z,165.23
2022-12-01T21:58:50.399Z,177.02
2022-12-01T22:01:34.243Z,162.48
2022-12-01T22:04:45.882Z,168.60
2022-12-01T22:07:35.732Z,183.57
2022-12-01T22:10:56.465Z,160.48
2022-12-01T22:13:58.276Z,158.75
2022-12-01T22:16:52.382Z,169.35
2022-12-01T22:19:44.639Z,166.45
2022-12-01T22:22:40.387Z,158.38
2022-12-01T22:25:36.105Z,168.35
2022-12-01T22:28:34.482Z,163.70
2022-12-01T22:31:27.673Z,178.85
2022-12-01T22:34:22.408Z,168.48
2022-12-01T22:37:13.305Z,162.63
2022-12-01T22:40:04.412Z,166.43
2022-12-01T22:42:53.428Z,172.60
2022-12-01T22:45:35.748Z,160.55
2022-12-01T22:48:36.363Z,159.82
2022-12-01T22:51:30.214Z,161.93
2022-12-01T22:54:25.277Z,152.95
2022-12-01T22:57:25.289Z,163.93
2022-12-01T23:00:19.302Z,168.00
2022-12-01T23:03:10.457Z,172.95
2022-12-01T23:06:03.672Z,161.02
2022-12-01T23:08:46.293Z,175.67
2022-12-01T23:11:28.542Z,162.15
2022-12-01T23:14:17.396Z,161.93
2022-12-01T23:17:15.476Z,165.32
2022-12-01T23:20:00.632Z,165.32
2022-12-01T23:22:49.469Z,169.00
2022-12-01T23:25:40.322Z,170.27
2022-12-01T23:28:30.369Z,168.18
2022-12-01T23:31:19.325Z,178.00
2022-12-01T23:34:08.241Z,169.18
2022-12-01T23:36:58.276Z,165.73
2022-12-01T23:39:47.322Z,172.60
2022-12-01T23:42:29.664Z,166.70
2022-12-01T23:45:33.316Z,172.15
2022-12-01T23:48:31.821Z,166.23
2022-12-01T23:51:43.266Z,168.48
2022-12-01T23:54:39.402Z,170.50
2022-12-01T23:57:31.313Z,176.48
